sensor_id;sensor_type;location;lat;lon;timestamp;temperature;humidity
72919;SHT30;68407;55.694;26.994;2023-09-12T00:01:22;14.3;85.5
72919;SHT30;68407;55.694;26.994;2023-09-12T00:06:02;14.3;86.5
72919;SHT30;68407;55.694;26.994;2023-09-12T00:10:46;14.2;86.5
72919;SHT30;68407;55.694;26.994;2023-09-12T00:16:18;14.2;86.5
72919;SHT30;68407;55.694;26.994;2023-09-12T00:21:32;14.3;87.4
72919;SHT30;68407;55.694;26.994;2023-09-12T00:26:02;14.4;86.1
72919;SHT30;68407;55.694;26.994;2023-09-12T00:31:00;14.2;85.3
72919;SHT30;68407;55.694;26.994;2023-09-12T00:35:46;14.1;85.9
72919;SHT30;68407;55.694;26.994;2023-09-12T00:40:52;14;85.8
72919;SHT30;68407;55.694;26.994;2023-09-12T00:46:32;14;85.4
72919;SHT30;68407;55.694;26.994;2023-09-12T00:51:22;13.9;85.5
72919;SHT30;68407;55.694;26.994;2023-09-12T00:56:18;13.9;85.6
72919;SHT30;68407;55.694;26.994;2023-09-12T01:01:00;13.9;85.8
72919;SHT30;68407;55.694;26.994;2023-09-12T01:06:02;13.9;86.5
72919;SHT30;68407;55.694;26.994;2023-09-12T01:11:32;13.9;85.9
72919;SHT30;68407;55.694;26.994;2023-09-12T01:16:08;13.8;85.8
72919;SHT30;68407;55.694;26.994;2023-09-12T01:20:58;13.8;85.6
72919;SHT30;68407;55.694;26.994;2023-09-12T01:25:59;13.7;85.8
72919;SHT30;68407;55.694;26.994;2023-09-12T01:30:46;13.7;87.2
72919;SHT30;68407;55.694;26.994;2023-09-12T01:36:32;13.8;85.7
72919;SHT30;68407;55.694;26.994;2023-09-12T01:41:30;13.7;85.5
72919;SHT30;68407;55.694;26.994;2023-09-12T01:46:18;13.6;85.7
72919;SHT30;68407;55.694;26.994;2023-09-12T01:50:46;13.6;86
72919;SHT30;68407;55.694;26.994;2023-09-12T01:56:18;13.6;86.1
72919;SHT30;68407;55.694;26.994;2023-09-12T02:01:32;13.6;85.5
72919;SHT30;68407;55.694;26.994;2023-09-12T02:06:02;13.6;85.7
72919;SHT30;68407;55.694;26.994;2023-09-12T02:10:52;13.5;85.7
72919;SHT30;68407;55.694;26.994;2023-09-12T02:15:46;13.5;85.6
72919;SHT30;68407;55.694;26.994;2023-09-12T02:21:00;13.5;86
72919;SHT30;68407;55.694;26.994;2023-09-12T02:26:30;13.4;85.9
72919;SHT30;68407;55.694;26.994;2023-09-12T02:31:10;13.4;85.4
72919;SHT30;68407;55.694;26.994;2023-09-12T02:36:18;13.4;86.5
72919;SHT30;68407;55.694;26.994;2023-09-12T02:40:52;13.5;86.6
72919;SHT30;68407;55.694;26.994;2023-09-12T02:46:18;13.4;85.6
72919;SHT30;68407;55.694;26.994;2023-09-12T02:51:31;13.3;86.2
72919;SHT30;68407;55.694;26.994;2023-09-12T02:55:52;13.5;85.9
72919;SHT30;68407;55.694;26.994;2023-09-12T03:00:52;13.4;85.9
72919;SHT30;68407;55.694;26.994;2023-09-12T03:05:46;13.3;85.9
72919;SHT30;68407;55.694;26.994;2023-09-12T03:10:52;13.3;86.7
72919;SHT30;68407;55.694;26.994;2023-09-12T03:16:32;13.3;86.2
72919;SHT30;68407;55.694;26.994;2023-09-12T03:21:20;13.3;85.6
72919;SHT30;68407;55.694;26.994;2023-09-12T03:26:18;13.1;85.8
72919;SHT30;68407;55.694;26.994;2023-09-12T03:30:46;13;86.2
72919;SHT30;68407;55.694;26.994;2023-09-12T03:36:18;13;86.5
72919;SHT30;68407;55.694;26.994;2023-09-12T03:41:32;13.1;87.6
72919;SHT30;68407;55.694;26.994;2023-09-12T03:46:02;13;86.5
72919;SHT30;68407;55.694;26.994;2023-09-12T03:50:48;13.2;87
72919;SHT30;68407;55.694;26.994;2023-09-12T03:56:04;13.1;85.7
72919;SHT30;68407;55.694;26.994;2023-09-12T04:01:22;13;86.2
72919;SHT30;68407;55.694;26.994;2023-09-12T04:06:32;13;86.2
72919;SHT30;68407;55.694;26.994;2023-09-12T04:11:22;13.1;86.5
72919;SHT30;68407;55.694;26.994;2023-09-12T04:16:18;13.2;86.4
72919;SHT30;68407;55.694;26.994;2023-09-12T04:21:14;13.3;86.5
72919;SHT30;68407;55.694;26.994;2023-09-12T04:26:08;13.5;86.8
72919;SHT30;68407;55.694;26.994;2023-09-12T04:31:30;13.8;85.8
72919;SHT30;68407;55.694;26.994;2023-09-12T04:35:52;13.8;85.5
72919;SHT30;68407;55.694;26.994;2023-09-12T04:40:52;13.9;86
72919;SHT30;68407;55.694;26.994;2023-09-12T04:46:28;14.1;86.3
72919;SHT30;68407;55.694;26.994;2023-09-12T04:51:22;14.2;86.5
72919;SHT30;68407;55.694;26.994;2023-09-12T04:56:28;14.4;87.1
72919;SHT30;68407;55.694;26.994;2023-09-12T05:01:18;14.7;87.4
72919;SHT30;68407;55.694;26.994;2023-09-12T05:06:14;15;87.2
72919;SHT30;68407;55.694;26.994;2023-09-12T05:11:14;15.4;87.2
72919;SHT30;68407;55.694;26.994;2023-09-12T05:16:08;15.7;86.7
72919;SHT30;68407;55.694;26.994;2023-09-12T05:21:30;15.9;85.8
72919;SHT30;68407;55.694;26.994;2023-09-12T05:25:46;16.1;85.7
72919;SHT30;68407;55.694;26.994;2023-09-12T05:30:46;16.3;85.1
72919;SHT30;68407;55.694;26.994;2023-09-12T05:35:52;16.5;84.5
72919;SHT30;68407;55.694;26.994;2023-09-12T05:41:22;16.6;84.1
72919;SHT30;68407;55.694;26.994;2023-09-12T05:46:28;16.8;83.2
72919;SHT30;68407;55.694;26.994;2023-09-12T05:51:22;17;82.3
72919;SHT30;68407;55.694;26.994;2023-09-12T05:56:16;17.1;81.9
72919;SHT30;68407;55.694;26.994;2023-09-12T06:00:58;17.4;81.2
72919;SHT30;68407;55.694;26.994;2023-09-12T06:06:08;17.6;80.2
72919;SHT30;68407;55.694;26.994;2023-09-12T06:11:30;17.7;80
72919;SHT30;68407;55.694;26.994;2023-09-12T06:15:52;17.9;79.2
72919;SHT30;68407;55.694;26.994;2023-09-12T06:20:52;18.1;78.5
72919;SHT30;68407;55.694;26.994;2023-09-12T06:25:56;18.3;78.3
72919;SHT30;68407;55.694;26.994;2023-09-12T06:31:02;18.5;78.3
72919;SHT30;68407;55.694;26.994;2023-09-12T06:36:26;18.8;77.1
72919;SHT30;68407;55.694;26.994;2023-09-12T06:41:20;19.1;76.3
72919;SHT30;68407;55.694;26.994;2023-09-12T06:46:14;19.5;75.8
72919;SHT30;68407;55.694;26.994;2023-09-12T06:50:56;19.7;74.6
72919;SHT30;68407;55.694;26.994;2023-09-12T06:56:06;19.9;74.7
72919;SHT30;68407;55.694;26.994;2023-09-12T07:01:28;20.1;73.8
72919;SHT30;68407;55.694;26.994;2023-09-12T07:06:08;20.4;72.9
72919;SHT30;68407;55.694;26.994;2023-09-12T07:11:16;20.6;72.6
72919;SHT30;68407;55.694;26.994;2023-09-12T07:16:02;20.7;72.5
72919;SHT30;68407;55.694;26.994;2023-09-12T07:21:22;21;71.4
72919;SHT30;68407;55.694;26.994;2023-09-12T07:26:30;21.2;70.6
72919;SHT30;68407;55.694;26.994;2023-09-12T07:31:22;21.4;69.8
72919;SHT30;68407;55.694;26.994;2023-09-12T07:36:16;21.5;69.5
72919;SHT30;68407;55.694;26.994;2023-09-12T07:40:58;21.7;69.1
72919;SHT30;68407;55.694;26.994;2023-09-12T07:45:46;21.8;68.7
72919;SHT30;68407;55.694;26.994;2023-09-12T07:51:31;21.9;68.9
72919;SHT30;68407;55.694;26.994;2023-09-12T07:55:52;22;68.4
72919;SHT30;68407;55.694;26.994;2023-09-12T08:00:46;22.2;68.2
72919;SHT30;68407;55.694;26.994;2023-09-12T08:05:53;22.3;67.7
72919;SHT30;68407;55.694;26.994;2023-09-12T08:11:04;22.4;67.2
72919;SHT30;68407;55.694;26.994;2023-09-12T08:16:30;22.6;66.5
72919;SHT30;68407;55.694;26.994;2023-09-12T08:21:30;22.7;66.2
72919;SHT30;68407;55.694;26.994;2023-09-12T08:26:16;22.9;65.6
72919;SHT30;68407;55.694;26.994;2023-09-12T08:31:30;23;64.9
72919;SHT30;68407;55.694;26.994;2023-09-12T08:36:08;23.1;65.4
72919;SHT30;68407;55.694;26.994;2023-09-12T08:41:16;23.3;64.9
72919;SHT30;68407;55.694;26.994;2023-09-12T08:45:46;23.6;63.9
72919;SHT30;68407;55.694;26.994;2023-09-12T08:51:06;23.7;63.5
72919;SHT30;68407;55.694;26.994;2023-09-12T08:55:52;23.7;62.6
72919;SHT30;68407;55.694;26.994;2023-09-12T09:01:04;23.7;63
72919;SHT30;68407;55.694;26.994;2023-09-12T09:06:31;23.9;63
72919;SHT30;68407;55.694;26.994;2023-09-12T09:11:32;24.1;62.2
72919;SHT30;68407;55.694;26.994;2023-09-12T09:16:16;24.2;61.9
72919;SHT30;68407;55.694;26.994;2023-09-12T09:21:31;24.4;62.8
72919;SHT30;68407;55.694;26.994;2023-09-12T09:26:08;24.6;62.7
72919;SHT30;68407;55.694;26.994;2023-09-12T09:31:16;24.7;61.6
72919;SHT30;68407;55.694;26.994;2023-09-12T09:35:47;24.8;61.4
72919;SHT30;68407;55.694;26.994;2023-09-12T09:41:08;24.9;61.5
72919;SHT30;68407;55.694;26.994;2023-09-12T09:46:02;25.1;61.5
72919;SHT30;68407;55.694;26.994;2023-09-12T09:51:08;25.2;60.6
72919;SHT30;68407;55.694;26.994;2023-09-12T09:56:28;25.3;59.9
72919;SHT30;68407;55.694;26.994;2023-09-12T10:01:29;25.3;60.2
72919;SHT30;68407;55.694;26.994;2023-09-12T10:06:17;25.4;59.4
72919;SHT30;68407;55.694;26.994;2023-09-12T10:11:28;25.6;59.6
72919;SHT30;68407;55.694;26.994;2023-09-12T10:15:46;25.8;58.9
72919;SHT30;68407;55.694;26.994;2023-09-12T10:21:18;25.9;58.1
72919;SHT30;68407;55.694;26.994;2023-09-12T10:25:52;26;58.1
72919;SHT30;68407;55.694;26.994;2023-09-12T10:30:53;26.1;57.6
72919;SHT30;68407;55.694;26.994;2023-09-12T10:35:46;26.2;57.3
72919;SHT30;68407;55.694;26.994;2023-09-12T10:40:46;26.2;57.4
72919;SHT30;68407;55.694;26.994;2023-09-12T10:46:28;26.2;56.8
72919;SHT30;68407;55.694;26.994;2023-09-12T10:51:26;26.3;56.9
72919;SHT30;68407;55.694;26.994;2023-09-12T10:56:17;26.4;56.2
72919;SHT30;68407;55.694;26.994;2023-09-12T11:01:30;26.5;56.9
72919;SHT30;68407;55.694;26.994;2023-09-12T11:06:19;26.4;56.7
72919;SHT30;68407;55.694;26.994;2023-09-12T11:11:16;26.3;56.8
72919;SHT30;68407;55.694;26.994;2023-09-12T11:16:09;26.3;56.5
72919;SHT30;68407;55.694;26.994;2023-09-12T11:20:50;26.5;56.5
72919;SHT30;68407;55.694;26.994;2023-09-12T11:26:04;26.6;55.8
72919;SHT30;68407;55.694;26.994;2023-09-12T11:31:02;26.6;56
72919;SHT30;68407;55.694;26.994;2023-09-12T11:36:28;26.7;55.7
72919;SHT30;68407;55.694;26.994;2023-09-12T11:41:43;26.7;55.9
72919;SHT30;68407;55.694;26.994;2023-09-12T11:46:16;26.6;55.6
72919;SHT30;68407;55.694;26.994;2023-09-12T11:51:28;26.7;55.9
72919;SHT30;68407;55.694;26.994;2023-09-12T11:56:08;26.9;55.7
72919;SHT30;68407;55.694;26.994;2023-09-12T12:01:16;27;55.5
72919;SHT30;68407;55.694;26.994;2023-09-12T12:05:46;26.9;55.2
72919;SHT30;68407;55.694;26.994;2023-09-12T12:10:52;26.3;55.7
72919;SHT30;68407;55.694;26.994;2023-09-12T12:16:01;26.5;55.9
72919;SHT30;68407;55.694;26.994;2023-09-12T12:21:00;26.7;55.3
72919;SHT30;68407;55.694;26.994;2023-09-12T12:26:10;26.7;55
72919;SHT30;68407;55.694;26.994;2023-09-12T12:31:10;26.7;54.5
72919;SHT30;68407;55.694;26.994;2023-09-12T12:36:26;26.7;54.5
72919;SHT30;68407;55.694;26.994;2023-09-12T12:41:29;26.7;54.3
72919;SHT30;68407;55.694;26.994;2023-09-12T12:46:10;26.7;54.1
72919;SHT30;68407;55.694;26.994;2023-09-12T12:51:28;26.6;54.9
72919;SHT30;68407;55.694;26.994;2023-09-12T12:55:52;26.7;55.3
72919;SHT30;68407;55.694;26.994;2023-09-12T13:00:46;26.7;54.3
72919;SHT30;68407;55.694;26.994;2023-09-12T13:06:08;26.8;54.9
72919;SHT30;68407;55.694;26.994;2023-09-12T13:10:54;26.8;54.4
72919;SHT30;68407;55.694;26.994;2023-09-12T13:16:12;26.8;54.1
72919;SHT30;68407;55.694;26.994;2023-09-12T13:21:08;26.7;54.2
72919;SHT30;68407;55.694;26.994;2023-09-12T13:26:28;26.6;54.7
72919;SHT30;68407;55.694;26.994;2023-09-12T13:31:28;26.5;54.5
72919;SHT30;68407;55.694;26.994;2023-09-12T13:36:08;26.6;55.3
72919;SHT30;68407;55.694;26.994;2023-09-12T13:41:28;26.6;55.3
72919;SHT30;68407;55.694;26.994;2023-09-12T13:46:04;26.5;55.1
72919;SHT30;68407;55.694;26.994;2023-09-12T13:50:46;26.5;55.3
72919;SHT30;68407;55.694;26.994;2023-09-12T13:56:10;26.3;54.8
72919;SHT30;68407;55.694;26.994;2023-09-12T14:00:56;26.3;55.8
72919;SHT30;68407;55.694;26.994;2023-09-12T14:05:54;26.3;55.6
72919;SHT30;68407;55.694;26.994;2023-09-12T14:11:14;26.2;55.4
72919;SHT30;68407;55.694;26.994;2023-09-12T14:16:32;26.2;55.4
72919;SHT30;68407;55.694;26.994;2023-09-12T14:21:32;26.2;55.2
72919;SHT30;68407;55.694;26.994;2023-09-12T14:26:02;26.2;55.1
72919;SHT30;68407;55.694;26.994;2023-09-12T14:31:32;26.3;55.4
72919;SHT30;68407;55.694;26.994;2023-09-12T14:36:08;26.4;55.4
72919;SHT30;68407;55.694;26.994;2023-09-12T14:41:13;26.3;54.7
72919;SHT30;68407;55.694;26.994;2023-09-12T14:46:14;26.2;54.4
72919;SHT30;68407;55.694;26.994;2023-09-12T14:51:02;26.2;55.1
72919;SHT30;68407;55.694;26.994;2023-09-12T14:56:14;26.1;55.3
72919;SHT30;68407;55.694;26.994;2023-09-12T15:01:13;26.1;55.4
72919;SHT30;68407;55.694;26.994;2023-09-12T15:06:30;26;55.6
72919;SHT30;68407;55.694;26.994;2023-09-12T15:11:32;25.9;56.9
72919;SHT30;68407;55.694;26.994;2023-09-12T15:16:10;25.8;56.8
72919;SHT30;68407;55.694;26.994;2023-09-12T15:21:30;25.6;57.5
72919;SHT30;68407;55.694;26.994;2023-09-12T15:25:56;25.5;58.5
72919;SHT30;68407;55.694;26.994;2023-09-12T15:31:02;25.5;60.2
72919;SHT30;68407;55.694;26.994;2023-09-12T15:36:14;25.2;62.4
72919;SHT30;68407;55.694;26.994;2023-09-12T15:41:04;24.9;64.2
72919;SHT30;68407;55.694;26.994;2023-09-12T15:46:16;24.4;66.6
72919;SHT30;68407;55.694;26.994;2023-09-12T15:51:15;23.9;68.4
72919;SHT30;68407;55.694;26.994;2023-09-12T15:56:33;23.5;70.2
72919;SHT30;68407;55.694;26.994;2023-09-12T16:01:31;23.1;70
72919;SHT30;68407;55.694;26.994;2023-09-12T16:06:16;22.7;71.3
72919;SHT30;68407;55.694;26.994;2023-09-12T16:11:30;22.5;70.6
72919;SHT30;68407;55.694;26.994;2023-09-12T16:15:52;22.2;71.3
72919;SHT30;68407;55.694;26.994;2023-09-12T16:20:46;21.8;72.5
72919;SHT30;68407;55.694;26.994;2023-09-12T16:26:12;21.4;73.8
72919;SHT30;68407;55.694;26.994;2023-09-12T16:31:04;21.1;74.6
72919;SHT30;68407;55.694;26.994;2023-09-12T16:36:00;21;75.3
72919;SHT30;68407;55.694;26.994;2023-09-12T16:41:14;20.8;75.7
72919;SHT30;68407;55.694;26.994;2023-09-12T16:46:30;20.5;76.3
72919;SHT30;68407;55.694;26.994;2023-09-12T16:51:30;20.3;76.5
72919;SHT30;68407;55.694;26.994;2023-09-12T16:56:16;20;77
72919;SHT30;68407;55.694;26.994;2023-09-12T17:01:30;19.8;77.4
72919;SHT30;68407;55.694;26.994;2023-09-12T17:05:56;19.8;77.4
72919;SHT30;68407;55.694;26.994;2023-09-12T17:10:46;19.7;77.6
72919;SHT30;68407;55.694;26.994;2023-09-12T17:16:28;19.5;77.8
72919;SHT30;68407;55.694;26.994;2023-09-12T17:21:04;19.3;78.5
72919;SHT30;68407;55.694;26.994;2023-09-12T17:26:12;19.4;78.5
72919;SHT30;68407;55.694;26.994;2023-09-12T17:31:14;19.3;78.5
72919;SHT30;68407;55.694;26.994;2023-09-12T17:36:30;19.1;78.8
72919;SHT30;68407;55.694;26.994;2023-09-12T17:41:31;18.9;79.5
72919;SHT30;68407;55.694;26.994;2023-09-12T17:46:00;18.9;79.2
72919;SHT30;68407;55.694;26.994;2023-09-12T17:51:28;18.7;79.8
72919;SHT30;68407;55.694;26.994;2023-09-12T17:55:46;18.6;80.3
72919;SHT30;68407;55.694;26.994;2023-09-12T18:00:54;18.5;80.5
72919;SHT30;68407;55.694;26.994;2023-09-12T18:06:12;18.5;80.8
72919;SHT30;68407;55.694;26.994;2023-09-12T18:10:56;18.5;80.9
72919;SHT30;68407;55.694;26.994;2023-09-12T18:16:15;18.4;81.1
72919;SHT30;68407;55.694;26.994;2023-09-12T18:21:14;18.3;81.5
72919;SHT30;68407;55.694;26.994;2023-09-12T18:26:31;18.3;81.2
72919;SHT30;68407;55.694;26.994;2023-09-12T18:31:30;18.1;81.3
72919;SHT30;68407;55.694;26.994;2023-09-12T18:35:46;17.9;82.1
72919;SHT30;68407;55.694;26.994;2023-09-12T18:41:30;17.8;82.2
72919;SHT30;68407;55.694;26.994;2023-09-12T18:45:54;17.6;82.7
72919;SHT30;68407;55.694;26.994;2023-09-12T18:50:46;17.6;82.7
72919;SHT30;68407;55.694;26.994;2023-09-12T18:56:14;17.5;82.6
72919;SHT30;68407;55.694;26.994;2023-09-12T19:00:46;17.4;82.8
72919;SHT30;68407;55.694;26.994;2023-09-12T19:06:12;17.4;82.9
72919;SHT30;68407;55.694;26.994;2023-09-12T19:11:12;17.3;82.7
72919;SHT30;68407;55.694;26.994;2023-09-12T19:16:30;17.2;83
72919;SHT30;68407;55.694;26.994;2023-09-12T19:21:30;17.1;83
72919;SHT30;68407;55.694;26.994;2023-09-12T19:26:00;17;83.4
72919;SHT30;68407;55.694;26.994;2023-09-12T19:31:28;17.1;83.4
72919;SHT30;68407;55.694;26.994;2023-09-12T19:35:52;17.1;83.4
72919;SHT30;68407;55.694;26.994;2023-09-12T19:41:06;17;83.4
72919;SHT30;68407;55.694;26.994;2023-09-12T19:46:14;17;83.2
72919;SHT30;68407;55.694;26.994;2023-09-12T19:51:02;17.2;82.7
72919;SHT30;68407;55.694;26.994;2023-09-12T19:56:12;17.3;82.2
72919;SHT30;68407;55.694;26.994;2023-09-12T20:01:06;17.4;81.8
72919;SHT30;68407;55.694;26.994;2023-09-12T20:06:30;17.5;81.2
72919;SHT30;68407;55.694;26.994;2023-09-12T20:11:30;17.4;81.2
72919;SHT30;68407;55.694;26.994;2023-09-12T20:16:12;17.2;81.6
72919;SHT30;68407;55.694;26.994;2023-09-12T20:21:32;17;82.1
72919;SHT30;68407;55.694;26.994;2023-09-12T20:25:46;16.9;82.4
72919;SHT30;68407;55.694;26.994;2023-09-12T20:30:46;16.8;82.9
72919;SHT30;68407;55.694;26.994;2023-09-12T20:35:48;16.7;83.2
72919;SHT30;68407;55.694;26.994;2023-09-12T20:41:04;16.7;83.1
72919;SHT30;68407;55.694;26.994;2023-09-12T20:46:02;16.6;83.2
72919;SHT30;68407;55.694;26.994;2023-09-12T20:51:14;16.5;83.7
72919;SHT30;68407;55.694;26.994;2023-09-12T20:56:00;16.5;83.8
72919;SHT30;68407;55.694;26.994;2023-09-12T21:01:30;16.5;84
72919;SHT30;68407;55.694;26.994;2023-09-12T21:06:20;16.6;83.4
72919;SHT30;68407;55.694;26.994;2023-09-12T21:10:52;16.8;83.3
72919;SHT30;68407;55.694;26.994;2023-09-12T21:16:14;17;82.7
72919;SHT30;68407;55.694;26.994;2023-09-12T21:20:46;17;82.2
72919;SHT30;68407;55.694;26.994;2023-09-12T21:26:30;16.8;82.1
72919;SHT30;68407;55.694;26.994;2023-09-12T21:31:04;16.8;82.2
72919;SHT30;68407;55.694;26.994;2023-09-12T21:36:01;16.9;82.1
72919;SHT30;68407;55.694;26.994;2023-09-12T21:41:14;17;81.8
72919;SHT30;68407;55.694;26.994;2023-09-12T21:45:52;16.9;81.7
72919;SHT30;68407;55.694;26.994;2023-09-12T21:51:30;17;81.7
72919;SHT30;68407;55.694;26.994;2023-09-12T21:56:18;17.1;81.3
72919;SHT30;68407;55.694;26.994;2023-09-12T22:01:00;17.1;81.4
72919;SHT30;68407;55.694;26.994;2023-09-12T22:05:54;17.1;81.3
72919;SHT30;68407;55.694;26.994;2023-09-12T22:11:06;17;81.1
72919;SHT30;68407;55.694;26.994;2023-09-12T22:16:30;16.9;81.2
72919;SHT30;68407;55.694;26.994;2023-09-12T22:21:05;16.9;81.1
72919;SHT30;68407;55.694;26.994;2023-09-12T22:26:06;17;81.1
72919;SHT30;68407;55.694;26.994;2023-09-12T22:31:06;16.9;81
72919;SHT30;68407;55.694;26.994;2023-09-12T22:36:00;16.9;81.1
72919;SHT30;68407;55.694;26.994;2023-09-12T22:41:30;16.9;81
72919;SHT30;68407;55.694;26.994;2023-09-12T22:46:04;16.9;81
72919;SHT30;68407;55.694;26.994;2023-09-12T22:50:46;16.9;81
72919;SHT30;68407;55.694;26.994;2023-09-12T22:55:46;16.9;81
72919;SHT30;68407;55.694;26.994;2023-09-12T23:01:02;16.9;80.9
72919;SHT30;68407;55.694;26.994;2023-09-12T23:06:30;17;80.5
72919;SHT30;68407;55.694;26.994;2023-09-12T23:10:56;17;80.2
72919;SHT30;68407;55.694;26.994;2023-09-12T23:15:59;16.9;80.4
72919;SHT30;68407;55.694;26.994;2023-09-12T23:21:12;16.7;80.8
72919;SHT30;68407;55.694;26.994;2023-09-12T23:25:46;16.5;81.5
72919;SHT30;68407;55.694;26.994;2023-09-12T23:31:28;16.5;81.7
72919;SHT30;68407;55.694;26.994;2023-09-12T23:36:20;16.6;81.6
72919;SHT30;68407;55.694;26.994;2023-09-12T23:41:00;16.6;81.6
72919;SHT30;68407;55.694;26.994;2023-09-12T23:45:46;16.5;81.7
72919;SHT30;68407;55.694;26.994;2023-09-12T23:51:00;16.6;81.6
72919;SHT30;68407;55.694;26.994;2023-09-12T23:56:26;16.6;81.4
